Time,TemperatureF,DewpointF,PressureIn,WindDirection,WindDirectionDegrees,WindSpeedMPH,WindSpeedGustMPH,Humidity,HourlyPrecipIn,Conditions,Clouds,dailyrainin,SoftwareType,DateUTC
2013-06-30 00:04:00,61.2,50.2,30.16,SSE,155,0.0,1.0,67,0.00,,,0.00,meteohub,2013-06-30 07:04:00,
2013-06-30 00:09:00,61.0,50.0,30.16,SSE,166,0.0,2.0,67,0.00,,,0.00,meteohub,2013-06-30 07:09:00,
2013-06-30 00:14:00,60.8,49.8,30.16,South,180,0.0,2.0,67,0.00,,,0.00,meteohub,2013-06-30 07:14:00,
2013-06-30 00:19:00,60.6,49.3,30.16,SSE,160,1.0,1.0,66,0.00,,,0.00,meteohub,2013-06-30 07:19:00,
2013-06-30 00:24:00,60.6,49.3,30.16,SSE,153,0.0,2.0,66,0.00,,,0.00,meteohub,2013-06-30 07:24:00,
2013-06-30 00:29:00,60.6,49.3,30.16,SE,128,0.0,2.0,66,0.00,,,0.00,meteohub,2013-06-30 07:29:00,
2013-06-30 00:34:00,60.4,49.5,30.16,SSE,161,0.0,2.0,67,0.00,,,0.00,meteohub,2013-06-30 07:34:00,
2013-06-30 00:39:00,60.4,50.2,30.16,SSE,152,0.0,1.0,69,0.00,,,0.00,meteohub,2013-06-30 07:39:00,
2013-06-30 00:44:00,60.3,50.4,30.16,SSE,150,0.0,1.0,70,0.00,,,0.00,meteohub,2013-06-30 07:44:00,
2013-06-30 00:49:00,59.9,50.2,30.16,SSE,150,0.0,1.0,70,0.00,,,0.00,meteohub,2013-06-30 07:49:00,
2013-06-30 00:54:00,59.7,50.4,30.16,East,96,0.0,1.0,71,0.00,,,0.00,meteohub,2013-06-30 07:54:00,
2013-06-30 00:59:00,59.5,49.8,30.16,South,169,0.0,1.0,70,0.00,,,0.00,meteohub,2013-06-30 07:59:00,
2013-06-30 01:04:00,59.2,49.5,30.16,SE,144,0.0,1.0,70,0.00,,,0.00,meteohub,2013-06-30 08:04:00,
2013-06-30 01:09:00,59.0,49.6,30.16,South,176,0.0,0.0,71,0.00,,,0.00,meteohub,2013-06-30 08:09:00,
2013-06-30 01:14:00,58.8,49.5,30.16,SSE,152,0.0,1.0,71,0.00,,,0.00,meteohub,2013-06-30 08:14:00,
2013-06-30 01:19:00,58.6,48.9,30.16,SSE,152,0.0,1.0,70,0.00,,,0.00,meteohub,2013-06-30 08:19:00,
2013-06-30 01:24:00,58.5,49.5,30.16,SSE,152,0.0,0.0,72,0.00,,,0.00,meteohub,2013-06-30 08:24:00,
2013-06-30 01:29:00,58.3,49.3,30.16,SSE,152,0.0,0.0,72,0.00,,,0.00,meteohub,2013-06-30 08:29:00,
2013-06-30 01:34:00,58.1,49.1,30.16,SSE,152,0.0,1.0,72,0.00,,,0.00,meteohub,2013-06-30 08:34:00,
2013-06-30 01:39:00,58.1,49.5,30.16,ESE,118,0.0,1.0,73,0.00,,,0.00,meteohub,2013-06-30 08:39:00,
2013-06-30 01:44:00,57.9,49.3,30.16,ESE,106,0.0,1.0,73,0.00,,,0.00,meteohub,2013-06-30 08:44:00,
2013-06-30 01:50:00,57.9,49.6,30.16,SSW,192,0.0,2.0,74,0.00,,,0.00,meteohub,2013-06-30 08:50:00,
2013-06-30 01:55:00,57.7,49.5,30.16,SE,146,0.0,2.0,74,0.00,,,0.00,meteohub,2013-06-30 08:55:00,
2013-06-30 02:00:00,57.6,49.3,30.16,SSE,155,1.0,2.0,74,0.00,,,0.00,meteohub,2013-06-30 09:00:00,
2013-06-30 02:05:00,57.4,49.5,30.16,SSE,149,1.0,2.0,75,0.00,,,0.00,meteohub,2013-06-30 09:05:00,
2013-06-30 02:10:00,57.2,49.3,30.16,SE,144,0.0,2.0,75,0.00,,,0.00,meteohub,2013-06-30 09:10:00,
2013-06-30 02:15:00,57.0,49.1,30.16,SE,144,1.0,2.0,75,0.00,,,0.00,meteohub,2013-06-30 09:15:00,
2013-06-30 02:20:00,56.8,49.3,30.16,SE,144,0.0,2.0,76,0.00,,,0.00,meteohub,2013-06-30 09:20:00,
2013-06-30 02:25:00,56.8,49.3,30.16,SE,144,0.0,2.0,76,0.00,,,0.00,meteohub,2013-06-30 09:25:00,
2013-06-30 02:30:00,56.8,49.3,30.16,SSE,155,0.0,2.0,76,0.00,,,0.00,meteohub,2013-06-30 09:30:00,
2013-06-30 02:35:00,56.8,49.3,30.17,SE,142,0.0,1.0,76,0.00,,,0.00,meteohub,2013-06-30 09:35:00,
2013-06-30 02:40:00,56.7,49.1,30.17,SE,142,0.0,1.0,76,0.00,,,0.00,meteohub,2013-06-30 09:40:00,
2013-06-30 02:45:00,56.7,48.7,30.17,SE,141,1.0,1.0,75,0.00,,,0.00,meteohub,2013-06-30 09:45:00,
2013-06-30 02:50:00,56.5,48.7,30.17,SSE,161,0.0,1.0,75,0.00,,,0.00,meteohub,2013-06-30 09:50:00,
2013-06-30 02:55:00,56.1,48.7,30.16,SSE,150,0.0,1.0,76,0.00,,,0.00,meteohub,2013-06-30 09:55:00,
2013-06-30 03:00:00,55.9,48.6,30.16,SSE,150,0.0,1.0,76,0.00,,,0.00,meteohub,2013-06-30 10:00:00,
2013-06-30 03:05:00,55.8,48.7,30.16,SSE,148,0.0,2.0,77,0.00,,,0.00,meteohub,2013-06-30 10:05:00,
2013-06-30 03:10:00,55.6,48.6,30.16,SSE,160,0.0,2.0,77,0.00,,,0.00,meteohub,2013-06-30 10:10:00,
2013-06-30 03:15:00,55.6,48.6,30.16,SSE,149,0.0,1.0,77,0.00,,,0.00,meteohub,2013-06-30 10:15:00,
2013-06-30 03:20:00,55.2,48.2,30.16,SSE,154,0.0,0.0,77,0.00,,,0.00,meteohub,2013-06-30 10:20:00,
2013-06-30 03:25:00,55.2,48.2,30.16,SSE,150,0.0,0.0,77,0.00,,,0.00,meteohub,2013-06-30 10:25:00,
2013-06-30 03:30:00,55.0,48.0,30.16,SSE,150,0.0,2.0,77,0.00,,,0.00,meteohub,2013-06-30 10:30:00,
2013-06-30 03:35:00,55.0,48.4,30.16,SSE,157,0.0,2.0,78,0.00,,,0.00,meteohub,2013-06-30 10:35:00,
2013-06-30 03:40:00,54.9,48.2,30.16,SSE,151,0.0,2.0,78,0.00,,,0.00,meteohub,2013-06-30 10:40:00,
2013-06-30 03:45:00,54.7,48.0,30.16,SSE,163,0.0,2.0,78,0.00,,,0.00,meteohub,2013-06-30 10:45:00,
2013-06-30 03:50:00,54.7,48.0,30.16,SE,136,0.0,1.0,78,0.00,,,0.00,meteohub,2013-06-30 10:50:00,
2013-06-30 03:56:00,54.7,48.0,30.15,SE,136,0.0,1.0,78,0.00,,,0.00,meteohub,2013-06-30 10:56:00,
2013-06-30 04:01:00,54.5,47.8,30.15,SE,138,0.0,1.0,78,0.00,,,0.00,meteohub,2013-06-30 11:01:00,
2013-06-30 04:06:00,54.3,48.0,30.15,SE,138,0.0,1.0,79,0.00,,,0.00,meteohub,2013-06-30 11:06:00,
2013-06-30 04:11:00,54.1,48.0,30.15,SE,146,0.0,1.0,80,0.00,,,0.00,meteohub,2013-06-30 11:11:00,
2013-06-30 04:16:00,54.0,48.0,30.16,SE,146,0.0,0.0,80,0.00,,,0.00,meteohub,2013-06-30 11:16:00,
2013-06-30 04:21:00,54.0,47.7,30.15,SSE,147,0.0,0.0,79,0.00,,,0.00,meteohub,2013-06-30 11:21:00,
2013-06-30 04:26:00,53.8,47.5,30.15,SSE,160,0.0,0.0,79,0.00,,,0.00,meteohub,2013-06-30 11:26:00,
2013-06-30 04:31:00,53.6,47.3,30.15,SSE,148,0.0,0.0,79,0.00,,,0.00,meteohub,2013-06-30 11:31:00,
2013-06-30 04:36:00,53.6,47.3,30.15,SSE,159,0.0,0.0,79,0.00,,,0.00,meteohub,2013-06-30 11:36:00,
2013-06-30 04:41:00,53.8,47.5,30.15,SE,144,0.0,2.0,79,0.00,,,0.00,meteohub,2013-06-30 11:41:00,
2013-06-30 04:46:00,53.8,47.5,30.15,SSE,149,0.0,2.0,79,0.00,,,0.00,meteohub,2013-06-30 11:46:00,
2013-06-30 04:51:00,53.8,47.5,30.15,SSE,148,2.0,2.0,79,0.00,,,0.00,meteohub,2013-06-30 11:51:00,
2013-06-30 04:56:00,53.6,47.3,30.15,SSE,152,1.0,2.0,79,0.00,,,0.00,meteohub,2013-06-30 11:56:00,
2013-06-30 05:01:00,53.4,47.1,30.15,SSE,162,0.0,2.0,79,0.00,,,0.00,meteohub,2013-06-30 12:01:00,
2013-06-30 05:06:00,53.4,47.5,30.15,SE,144,1.0,2.0,80,0.00,,,0.00,meteohub,2013-06-30 12:06:00,
2013-06-30 05:11:00,53.4,47.5,30.15,SSE,152,0.0,2.0,80,0.00,,,0.00,meteohub,2013-06-30 12:11:00,
2013-06-30 05:16:00,53.2,47.3,30.16,SSE,152,0.0,2.0,80,0.00,,,0.00,meteohub,2013-06-30 12:16:00,
2013-06-30 05:21:00,53.1,47.1,30.16,SE,144,0.0,2.0,80,0.00,,,0.00,meteohub,2013-06-30 12:21:00,
2013-06-30 05:26:00,52.9,47.3,30.16,SE,140,0.0,2.0,81,0.00,,,0.00,meteohub,2013-06-30 12:26:00,
2013-06-30 05:31:00,52.9,47.3,30.16,SSE,163,0.0,2.0,81,0.00,,,0.00,meteohub,2013-06-30 12:31:00,
2013-06-30 05:36:00,52.9,47.3,30.16,SE,144,0.0,2.0,81,0.00,,,0.00,meteohub,2013-06-30 12:36:00,
2013-06-30 05:41:00,52.5,47.1,30.17,SSE,155,0.0,2.0,82,0.00,,,0.00,meteohub,2013-06-30 12:41:00,
2013-06-30 05:46:00,52.5,47.1,30.17,SSE,153,0.0,2.0,82,0.00,,,0.00,meteohub,2013-06-30 12:46:00,
2013-06-30 05:51:00,52.5,47.1,30.17,SSE,153,0.0,2.0,82,0.00,,,0.00,meteohub,2013-06-30 12:51:00,
2013-06-30 05:57:00,52.5,47.1,30.17,SSE,153,0.0,1.0,82,0.00,,,0.00,meteohub,2013-06-30 12:57:00,
2013-06-30 06:02:00,52.5,46.9,30.17,SSE,150,0.0,1.0,81,0.00,,,0.00,meteohub,2013-06-30 13:02:00,
2013-06-30 06:07:00,53.2,47.5,30.17,SSE,147,1.0,1.0,81,0.00,,,0.00,meteohub,2013-06-30 13:07:00,
2013-06-30 06:12:00,54.7,48.0,30.17,SE,146,0.0,1.0,78,0.00,,,0.00,meteohub,2013-06-30 13:12:00,
2013-06-30 06:17:00,56.1,48.4,30.17,SSE,147,0.0,1.0,75,0.00,,,0.00,meteohub,2013-06-30 13:17:00,
2013-06-30 06:22:00,57.0,48.4,30.17,SE,140,0.0,1.0,73,0.00,,,0.00,meteohub,2013-06-30 13:22:00,
2013-06-30 06:27:00,57.4,48.4,30.16,SE,144,0.0,2.0,72,0.00,,,0.00,meteohub,2013-06-30 13:27:00,
2013-06-30 06:32:00,57.6,48.2,30.17,SE,144,1.0,2.0,71,0.00,,,0.00,meteohub,2013-06-30 13:32:00,
2013-06-30 06:37:00,57.9,48.2,30.17,SSE,148,0.0,2.0,70,0.00,,,0.00,meteohub,2013-06-30 13:37:00,
2013-06-30 06:42:00,58.3,48.6,30.16,SE,134,0.0,2.0,70,0.00,,,0.00,meteohub,2013-06-30 13:42:00,
2013-06-30 06:47:00,58.6,48.9,30.16,SSE,148,2.0,2.0,70,0.00,,,0.00,meteohub,2013-06-30 13:47:00,
2013-06-30 06:52:00,59.2,48.6,30.16,SE,144,0.0,2.0,68,0.00,,,0.00,meteohub,2013-06-30 13:52:00,
2013-06-30 06:57:00,59.7,49.1,30.17,SE,144,0.0,2.0,68,0.00,,,0.00,meteohub,2013-06-30 13:57:00,
2013-06-30 07:02:00,60.4,49.8,30.17,SE,146,0.0,2.0,68,0.00,,,0.00,meteohub,2013-06-30 14:02:00,
2013-06-30 07:07:00,60.8,49.5,30.16,SSE,151,0.0,1.0,66,0.00,,,0.00,meteohub,2013-06-30 14:07:00,
2013-06-30 07:12:00,61.2,49.3,30.16,SSE,150,0.0,2.0,65,0.00,,,0.00,meteohub,2013-06-30 14:12:00,
2013-06-30 07:17:00,62.1,50.2,30.16,SE,138,1.0,2.0,65,0.00,,,0.00,meteohub,2013-06-30 14:17:00,
2013-06-30 07:22:00,62.4,49.6,30.16,SSE,152,0.0,2.0,63,0.00,,,0.00,meteohub,2013-06-30 14:22:00,
2013-06-30 07:27:00,63.1,50.4,30.16,SSE,152,0.0,1.0,63,0.00,,,0.00,meteohub,2013-06-30 14:27:00,
2013-06-30 07:32:00,64.0,50.7,30.16,SSE,150,0.0,1.0,62,0.00,,,0.00,meteohub,2013-06-30 14:32:00,
2013-06-30 07:37:00,64.6,52.2,30.16,SSE,150,0.0,1.0,64,0.00,,,0.00,meteohub,2013-06-30 14:37:00,
2013-06-30 07:42:00,64.6,52.2,30.16,SSE,150,0.0,0.0,64,0.00,,,0.00,meteohub,2013-06-30 14:42:00,
2013-06-30 07:47:00,63.7,52.2,30.16,NE,53,0.0,0.0,66,0.00,,,0.00,meteohub,2013-06-30 14:47:00,
2013-06-30 07:52:00,63.0,51.8,30.16,NE,42,0.0,3.0,67,0.00,,,0.00,meteohub,2013-06-30 14:52:00,
2013-06-30 07:57:00,62.6,51.1,30.16,NE,50,0.0,3.0,66,0.00,,,0.00,meteohub,2013-06-30 14:57:00,
2013-06-30 08:02:00,62.8,52.0,30.16,NNE,31,2.0,4.0,68,0.00,,,0.00,meteohub,2013-06-30 15:02:00,
2013-06-30 08:07:00,62.6,51.4,30.16,NNW,337,0.0,4.0,67,0.00,,,0.00,meteohub,2013-06-30 15:07:00,
2013-06-30 08:12:00,62.8,51.6,30.16,NNW,330,1.0,3.0,67,0.00,,,0.00,meteohub,2013-06-30 15:12:00,
2013-06-30 08:17:00,63.0,52.2,30.16,NNW,330,1.0,3.0,68,0.00,,,0.00,meteohub,2013-06-30 15:17:00,
2013-06-30 08:22:00,63.3,51.8,30.16,NNW,330,0.0,1.0,66,0.00,,,0.00,meteohub,2013-06-30 15:22:00,
2013-06-30 08:27:00,63.7,51.6,30.15,NNW,330,0.0,1.0,65,0.00,,,0.00,meteohub,2013-06-30 15:27:00,
2013-06-30 08:32:00,63.9,52.3,30.15,NNW,337,1.0,1.0,66,0.00,,,0.00,meteohub,2013-06-30 15:32:00,
2013-06-30 08:37:00,64.4,52.9,30.15,NE,38,2.0,2.0,66,0.00,,,0.00,meteohub,2013-06-30 15:37:00,
2013-06-30 08:42:00,64.6,52.2,30.15,NE,38,0.0,2.0,64,0.00,,,0.00,meteohub,2013-06-30 15:42:00,
2013-06-30 08:47:00,64.6,52.9,30.15,NE,37,1.0,2.0,66,0.00,,,0.00,meteohub,2013-06-30 15:47:00,
2013-06-30 08:52:00,64.6,53.8,30.15,NNE,26,1.0,2.0,68,0.00,,,0.00,meteohub,2013-06-30 15:52:00,
2013-06-30 08:57:00,64.9,53.2,30.15,NNE,26,0.0,2.0,66,0.00,,,0.00,meteohub,2013-06-30 15:57:00,
2013-06-30 09:02:00,65.1,53.4,30.14,North,350,2.0,2.0,66,0.00,,,0.00,meteohub,2013-06-30 16:02:00,
2013-06-30 09:07:00,65.1,53.1,30.14,NNE,28,1.0,2.0,65,0.00,,,0.00,meteohub,2013-06-30 16:07:00,
2013-06-30 09:12:00,65.1,53.1,30.14,NNW,346,1.0,2.0,65,0.00,,,0.00,meteohub,2013-06-30 16:12:00,
2013-06-30 09:17:00,64.9,54.1,30.14,NNE,20,2.0,2.0,68,0.00,,,0.00,meteohub,2013-06-30 16:17:00,
2013-06-30 09:22:00,64.8,54.7,30.14,North,11,3.0,3.0,70,0.00,,,0.00,meteohub,2013-06-30 16:22:00,
2013-06-30 09:28:00,64.2,55.8,30.14,NNW,340,3.0,3.0,74,0.00,,,0.00,meteohub,2013-06-30 16:28:00,
2013-06-30 09:33:00,63.9,55.8,30.14,NNW,336,4.0,4.0,75,0.00,,,0.00,meteohub,2013-06-30 16:33:00,
2013-06-30 09:38:00,63.7,55.9,30.14,NW,319,3.0,4.0,76,0.00,,,0.00,meteohub,2013-06-30 16:38:00,
2013-06-30 09:43:00,63.7,56.3,30.14,NW,318,3.0,4.0,77,0.00,,,0.00,meteohub,2013-06-30 16:43:00,
2013-06-30 09:48:00,63.5,56.1,30.14,NW,322,4.0,4.0,77,0.00,,,0.00,meteohub,2013-06-30 16:48:00,
2013-06-30 09:53:00,63.7,56.7,30.13,NW,319,3.0,5.0,78,0.00,,,0.00,meteohub,2013-06-30 16:53:00,
2013-06-30 09:58:00,63.7,57.0,30.13,NW,317,3.0,5.0,79,0.00,,,0.00,meteohub,2013-06-30 16:58:00,
2013-06-30 10:03:00,64.2,57.2,30.13,NW,320,1.0,5.0,78,0.00,,,0.00,meteohub,2013-06-30 17:03:00,
2013-06-30 10:08:00,64.6,57.6,30.13,NW,318,2.0,4.0,78,0.00,,,0.00,meteohub,2013-06-30 17:08:00,
2013-06-30 10:13:00,64.8,57.7,30.13,NW,323,3.0,5.0,78,0.00,,,0.00,meteohub,2013-06-30 17:13:00,
2013-06-30 10:18:00,64.6,57.6,30.13,NW,319,3.0,5.0,78,0.00,,,0.00,meteohub,2013-06-30 17:18:00,
2013-06-30 10:23:00,64.6,57.2,30.12,NNW,327,3.0,4.0,77,0.00,,,0.00,meteohub,2013-06-30 17:23:00,
2013-06-30 10:28:00,64.8,58.5,30.12,NW,326,2.0,4.0,80,0.00,,,0.00,meteohub,2013-06-30 17:28:00,
2013-06-30 10:33:00,64.6,57.2,30.12,NW,319,2.0,4.0,77,0.00,,,0.00,meteohub,2013-06-30 17:33:00,
2013-06-30 10:38:00,64.8,56.7,30.12,NW,319,1.0,3.0,75,0.00,,,0.00,meteohub,2013-06-30 17:38:00,
2013-06-30 10:43:00,64.9,56.5,30.12,NW,319,2.0,3.0,74,0.00,,,0.00,meteohub,2013-06-30 17:43:00,
2013-06-30 10:49:00,65.1,57.4,30.12,NW,319,1.0,3.0,76,0.00,,,0.00,meteohub,2013-06-30 17:49:00,
2013-06-30 10:54:00,65.1,58.1,30.12,NW,322,2.0,2.0,78,0.00,,,0.00,meteohub,2013-06-30 17:54:00,
2013-06-30 10:59:00,65.3,57.6,30.12,NW,322,2.0,3.0,76,0.00,,,0.00,meteohub,2013-06-30 17:59:00,
2013-06-30 11:04:00,65.3,57.2,30.11,NW,319,2.0,3.0,75,0.00,,,0.00,meteohub,2013-06-30 18:04:00,
2013-06-30 11:09:00,65.7,57.6,30.11,NW,319,2.0,3.0,75,0.00,,,0.00,meteohub,2013-06-30 18:09:00,
2013-06-30 11:14:00,65.7,57.2,30.11,NW,319,2.0,3.0,74,0.00,,,0.00,meteohub,2013-06-30 18:14:00,
2013-06-30 11:19:00,65.8,56.5,30.11,NNE,26,3.0,3.0,72,0.00,,,0.00,meteohub,2013-06-30 18:19:00,
2013-06-30 11:24:00,66.4,56.3,30.11,NNW,337,2.0,2.0,70,0.00,,,0.00,meteohub,2013-06-30 18:24:00,
2013-06-30 11:29:00,66.4,57.4,30.11,NNW,348,1.0,3.0,73,0.00,,,0.00,meteohub,2013-06-30 18:29:00,
2013-06-30 11:34:00,66.9,57.6,30.11,NNW,331,2.0,3.0,72,0.00,,,0.00,meteohub,2013-06-30 18:34:00,
2013-06-30 11:39:00,66.6,57.6,30.11,NNW,331,2.0,3.0,73,0.00,,,0.00,meteohub,2013-06-30 18:39:00,
2013-06-30 11:44:00,66.9,57.9,30.11,NNW,329,1.0,3.0,73,0.00,,,0.00,meteohub,2013-06-30 18:44:00,
2013-06-30 11:49:00,66.9,57.9,30.11,NNW,329,2.0,3.0,73,0.00,,,0.00,meteohub,2013-06-30 18:49:00,
2013-06-30 11:54:00,67.1,58.1,30.11,NNW,329,1.0,3.0,73,0.00,,,0.00,meteohub,2013-06-30 18:54:00,
2013-06-30 11:59:00,67.1,57.7,30.11,NNW,329,1.0,3.0,72,0.00,,,0.00,meteohub,2013-06-30 18:59:00,
2013-06-30 12:04:00,67.5,58.1,30.11,NNW,329,0.0,3.0,72,0.00,,,0.00,meteohub,2013-06-30 19:04:00,
2013-06-30 12:09:00,68.2,58.1,30.11,NE,36,1.0,2.0,70,0.00,,,0.00,meteohub,2013-06-30 19:09:00,
2013-06-30 12:14:00,68.2,58.5,30.11,NNW,331,2.0,2.0,71,0.00,,,0.00,meteohub,2013-06-30 19:14:00,
2013-06-30 12:20:00,68.4,58.6,30.11,NNW,336,1.0,2.0,71,0.00,,,0.00,meteohub,2013-06-30 19:20:00,
2013-06-30 12:25:00,68.5,57.9,30.11,NNW,348,2.0,2.0,69,0.00,,,0.00,meteohub,2013-06-30 19:25:00,
2013-06-30 12:30:00,68.7,59.0,30.11,NE,35,1.0,2.0,71,0.00,,,0.00,meteohub,2013-06-30 19:30:00,
2013-06-30 12:35:00,68.7,59.4,30.11,NE,35,1.0,3.0,72,0.00,,,0.00,meteohub,2013-06-30 19:35:00,
2013-06-30 12:40:00,69.1,60.1,30.11,NNE,31,2.0,3.0,73,0.00,,,0.00,meteohub,2013-06-30 19:40:00,
2013-06-30 12:45:00,69.1,60.1,30.11,North,355,2.0,2.0,73,0.00,,,0.00,meteohub,2013-06-30 19:45:00,
2013-06-30 12:50:00,69.1,58.8,30.11,NNW,340,1.0,3.0,70,0.00,,,0.00,meteohub,2013-06-30 19:50:00,
2013-06-30 12:55:00,69.4,59.5,30.11,NE,35,1.0,3.0,71,0.00,,,0.00,meteohub,2013-06-30 19:55:00,
2013-06-30 13:00:00,69.8,60.4,30.10,NNE,22,2.0,2.0,72,0.00,,,0.00,meteohub,2013-06-30 20:00:00,
2013-06-30 13:05:00,69.6,60.3,30.10,NNW,331,1.0,3.0,72,0.00,,,0.00,meteohub,2013-06-30 20:05:00,
2013-06-30 13:10:00,70.0,60.6,30.10,NW,311,0.0,3.0,72,0.00,,,0.00,meteohub,2013-06-30 20:10:00,
2013-06-30 13:15:00,71.2,57.9,30.10,NNW,337,1.0,3.0,63,0.00,,,0.00,meteohub,2013-06-30 20:15:00,
2013-06-30 13:20:00,71.6,53.1,30.10,North,350,0.0,3.0,52,0.00,,,0.00,meteohub,2013-06-30 20:20:00,
2013-06-30 13:26:00,71.8,51.6,30.10,NNW,331,0.0,3.0,49,0.00,,,0.00,meteohub,2013-06-30 20:26:00,
2013-06-30 13:31:00,72.5,59.2,30.10,NNW,341,1.0,2.0,63,0.00,,,0.00,meteohub,2013-06-30 20:31:00,
2013-06-30 13:36:00,71.8,59.4,30.10,NNW,340,0.0,2.0,65,0.00,,,0.00,meteohub,2013-06-30 20:36:00,
2013-06-30 13:41:00,71.2,59.7,30.10,NNW,338,0.0,2.0,67,0.00,,,0.00,meteohub,2013-06-30 20:41:00,
2013-06-30 13:46:00,71.1,59.5,30.09,NNW,338,0.0,2.0,67,0.00,,,0.00,meteohub,2013-06-30 20:46:00,
2013-06-30 13:51:00,71.2,60.6,30.10,NNW,338,1.0,2.0,69,0.00,,,0.00,meteohub,2013-06-30 20:51:00,
2013-06-30 13:56:00,72.3,57.7,30.10,NNW,338,1.0,2.0,60,0.00,,,0.00,meteohub,2013-06-30 20:56:00,
2013-06-30 14:01:00,72.9,56.7,30.09,NNE,13,2.0,2.0,57,0.00,,,0.00,meteohub,2013-06-30 21:01:00,
2013-06-30 14:06:00,72.7,59.4,30.10,North,349,0.0,3.0,63,0.00,,,0.00,meteohub,2013-06-30 21:06:00,
2013-06-30 14:11:00,74.1,52.5,30.09,NW,317,0.0,3.0,47,0.00,,,0.00,meteohub,2013-06-30 21:11:00,
2013-06-30 14:16:00,75.2,48.6,30.10,NNW,341,0.0,3.0,39,0.00,,,0.00,meteohub,2013-06-30 21:16:00,
2013-06-30 14:21:00,76.3,50.2,30.09,NNW,338,2.0,4.0,40,0.00,,,0.00,meteohub,2013-06-30 21:21:00,
2013-06-30 14:26:00,75.4,55.9,30.09,NW,316,0.0,4.0,51,0.00,,,0.00,meteohub,2013-06-30 21:26:00,
2013-06-30 14:31:00,75.7,56.8,30.09,WSW,248,3.0,4.0,52,0.00,,,0.00,meteohub,2013-06-30 21:31:00,
2013-06-30 14:37:00,77.4,49.1,30.09,NW,317,0.0,4.0,37,0.00,,,0.00,meteohub,2013-06-30 21:37:00,
2013-06-30 14:42:00,77.2,49.6,30.09,NNW,346,1.0,4.0,38,0.00,,,0.00,meteohub,2013-06-30 21:42:00,
2013-06-30 14:47:00,76.8,50.7,30.09,NNW,344,1.0,4.0,40,0.00,,,0.00,meteohub,2013-06-30 21:47:00,
2013-06-30 14:52:00,76.3,55.2,30.09,NNE,30,2.0,2.0,48,0.00,,,0.00,meteohub,2013-06-30 21:52:00,
2013-06-30 14:57:00,76.3,54.0,30.09,NNE,33,0.0,2.0,46,0.00,,,0.00,meteohub,2013-06-30 21:57:00,
2013-06-30 15:02:00,76.5,55.9,30.09,NNE,27,2.0,2.0,49,0.00,,,0.00,meteohub,2013-06-30 22:02:00,
2013-06-30 15:07:00,76.5,55.9,30.09,NNE,33,1.0,2.0,49,0.00,,,0.00,meteohub,2013-06-30 22:07:00,
2013-06-30 15:12:00,76.3,56.8,30.09,NNE,32,0.0,2.0,51,0.00,,,0.00,meteohub,2013-06-30 22:12:00,
2013-06-30 15:17:00,76.8,52.7,30.09,NNE,12,6.0,6.0,43,0.00,,,0.00,meteohub,2013-06-30 22:17:00,
2013-06-30 15:22:00,76.5,55.4,30.09,NNE,16,2.0,8.0,48,0.00,,,0.00,meteohub,2013-06-30 22:22:00,
2013-06-30 15:27:00,76.1,56.7,30.09,NNE,27,6.0,8.0,51,0.00,,,0.00,meteohub,2013-06-30 22:27:00,
2013-06-30 15:32:00,75.9,56.5,30.08,NE,49,4.0,8.0,51,0.00,,,0.00,meteohub,2013-06-30 22:32:00,
2013-06-30 15:37:00,75.4,55.9,30.08,NE,44,0.0,6.0,51,0.00,,,0.00,meteohub,2013-06-30 22:37:00,
2013-06-30 15:42:00,75.6,56.7,30.08,NE,38,5.0,6.0,52,0.00,,,0.00,meteohub,2013-06-30 22:42:00,
2013-06-30 15:47:00,74.7,58.5,30.08,NNE,30,9.0,9.0,57,0.00,,,0.00,meteohub,2013-06-30 22:47:00,
2013-06-30 15:52:00,75.4,56.5,30.07,NE,40,8.0,9.0,52,0.00,,,0.00,meteohub,2013-06-30 22:52:00,
2013-06-30 15:57:00,75.0,56.1,30.07,NW,326,11.0,11.0,52,0.00,,,0.00,meteohub,2013-06-30 22:57:00,
2013-06-30 16:02:00,76.5,55.4,30.07,NE,42,6.0,13.0,48,0.00,,,0.00,meteohub,2013-06-30 23:02:00,
2013-06-30 16:07:00,76.5,58.1,30.07,NE,46,6.0,13.0,53,0.00,,,0.00,meteohub,2013-06-30 23:07:00,
2013-06-30 16:12:00,75.9,59.2,30.07,NE,35,6.0,13.0,56,0.00,,,0.00,meteohub,2013-06-30 23:12:00,
2013-06-30 16:17:00,75.6,58.8,30.07,NE,39,0.0,8.0,56,0.00,,,0.00,meteohub,2013-06-30 23:17:00,
2013-06-30 16:22:00,76.5,59.5,30.07,NNE,28,2.0,8.0,56,0.00,,,0.00,meteohub,2013-06-30 23:22:00,
2013-06-30 16:27:00,77.2,59.7,30.07,NNW,333,1.0,7.0,55,0.00,,,0.00,meteohub,2013-06-30 23:27:00,
2013-06-30 16:32:00,78.1,57.4,30.06,NE,50,0.0,4.0,49,0.00,,,0.00,meteohub,2013-06-30 23:32:00,
2013-06-30 16:37:00,79.5,53.8,30.06,South,186,2.0,4.0,41,0.00,,,0.00,meteohub,2013-06-30 23:37:00,
2013-06-30 16:42:00,80.1,54.3,30.06,NE,42,5.0,5.0,41,0.00,,,0.00,meteohub,2013-06-30 23:42:00,
2013-06-30 16:47:00,79.7,55.9,30.06,NW,319,2.0,5.0,44,0.00,,,0.00,meteohub,2013-06-30 23:47:00,
2013-06-30 16:52:00,79.3,55.6,30.06,NE,47,3.0,5.0,44,0.00,,,0.00,meteohub,2013-06-30 23:52:00,
2013-06-30 16:57:00,81.0,54.3,30.06,NNE,12,0.0,5.0,40,0.00,,,0.00,meteohub,2013-06-30 23:57:00,
2013-06-30 17:02:00,83.5,53.8,30.06,ENE,59,0.0,5.0,36,0.00,,,0.00,meteohub,2013-07-01 00:02:00,
2013-06-30 17:07:00,84.9,50.9,30.06,South,186,2.0,3.0,31,0.00,,,0.00,meteohub,2013-07-01 00:07:00,
2013-06-30 17:12:00,85.6,51.6,30.06,West,267,0.0,6.0,31,0.00,,,0.00,meteohub,2013-07-01 00:12:00,
2013-06-30 17:17:00,86.2,51.1,30.06,West,273,0.0,6.0,30,0.00,,,0.00,meteohub,2013-07-01 00:17:00,
2013-06-30 17:22:00,86.9,51.8,30.06,SW,219,4.0,6.0,30,0.00,,,0.00,meteohub,2013-07-01 00:22:00,
2013-06-30 17:27:00,86.9,50.9,30.06,WNW,295,2.0,4.0,29,0.00,,,0.00,meteohub,2013-07-01 00:27:00,
2013-06-30 17:32:00,86.7,52.5,30.06,NNE,30,1.0,4.0,31,0.00,,,0.00,meteohub,2013-07-01 00:32:00,
2013-06-30 17:37:00,86.7,49.6,30.06,West,267,1.0,7.0,28,0.00,,,0.00,meteohub,2013-07-01 00:37:00,
2013-06-30 17:42:00,86.7,52.5,30.06,South,169,1.0,7.0,31,0.00,,,0.00,meteohub,2013-07-01 00:42:00,
2013-06-30 17:47:00,86.7,51.6,30.06,SW,223,0.0,4.0,30,0.00,,,0.00,meteohub,2013-07-01 00:47:00,
2013-06-30 17:52:00,87.1,51.8,30.05,East,82,0.0,5.0,30,0.00,,,0.00,meteohub,2013-07-01 00:52:00,
2013-06-30 17:57:00,87.1,50.9,30.06,SSW,202,0.0,5.0,29,0.00,,,0.00,meteohub,2013-07-01 00:57:00,
2013-06-30 18:02:00,86.5,52.3,30.06,WSW,254,1.0,4.0,31,0.00,,,0.00,meteohub,2013-07-01 01:02:00,
2013-06-30 18:07:00,86.9,53.4,30.05,SSW,209,1.0,4.0,32,0.00,,,0.00,meteohub,2013-07-01 01:07:00,
2013-06-30 18:12:00,87.1,56.1,30.05,SE,146,1.0,3.0,35,0.00,,,0.00,meteohub,2013-07-01 01:12:00,
2013-06-30 18:17:00,86.7,52.5,30.06,West,265,1.0,3.0,31,0.00,,,0.00,meteohub,2013-07-01 01:17:00,
2013-06-30 18:22:00,86.4,52.2,30.05,SW,215,1.0,3.0,31,0.00,,,0.00,meteohub,2013-07-01 01:22:00,
2013-06-30 18:27:00,86.4,51.3,30.05,WNW,287,1.0,3.0,30,0.00,,,0.00,meteohub,2013-07-01 01:27:00,
2013-06-30 18:32:00,86.0,53.6,30.05,SSW,199,0.0,4.0,33,0.00,,,0.00,meteohub,2013-07-01 01:32:00,
2013-06-30 18:37:00,85.6,52.3,30.05,SSE,152,0.0,4.0,32,0.00,,,0.00,meteohub,2013-07-01 01:37:00,
2013-06-30 18:42:00,85.5,54.0,30.06,WSW,254,0.0,4.0,34,0.00,,,0.00,meteohub,2013-07-01 01:42:00,
2013-06-30 18:47:00,84.7,54.1,30.06,West,267,0.0,2.0,35,0.00,,,0.00,meteohub,2013-07-01 01:47:00,
2013-06-30 18:52:00,84.0,52.7,30.06,SSW,207,2.0,2.0,34,0.00,,,0.00,meteohub,2013-07-01 01:52:00,
2013-06-30 18:57:00,83.1,51.1,30.06,South,175,0.0,2.0,33,0.00,,,0.00,meteohub,2013-07-01 01:57:00,
2013-06-30 19:02:00,82.9,53.2,30.06,South,175,0.0,2.0,36,0.00,,,0.00,meteohub,2013-07-01 02:02:00,
2013-06-30 19:07:00,82.6,52.9,30.06,NW,320,0.0,2.0,36,0.00,,,0.00,meteohub,2013-07-01 02:07:00,
2013-06-30 19:12:00,81.9,53.1,30.06,NW,315,1.0,2.0,37,0.00,,,0.00,meteohub,2013-07-01 02:12:00,
2013-06-30 19:17:00,81.3,51.1,30.06,NW,315,0.0,2.0,35,0.00,,,0.00,meteohub,2013-07-01 02:17:00,
2013-06-30 19:22:00,81.0,50.0,30.06,NW,310,0.0,2.0,34,0.00,,,0.00,meteohub,2013-07-01 02:22:00,
2013-06-30 19:27:00,80.4,50.2,30.06,NW,310,0.0,2.0,35,0.00,,,0.00,meteohub,2013-07-01 02:27:00,
2013-06-30 19:32:00,80.1,50.7,30.06,SW,227,0.0,0.0,36,0.00,,,0.00,meteohub,2013-07-01 02:32:00,
2013-06-30 19:37:00,78.8,55.6,30.06,WNW,303,0.0,1.0,45,0.00,,,0.00,meteohub,2013-07-01 02:37:00,
2013-06-30 19:42:00,77.7,55.9,30.06,SW,214,0.0,2.0,47,0.00,,,0.00,meteohub,2013-07-01 02:42:00,
2013-06-30 19:47:00,76.8,54.5,30.06,SW,214,0.0,2.0,46,0.00,,,0.00,meteohub,2013-07-01 02:47:00,
2013-06-30 19:52:00,75.6,58.8,30.06,NE,49,2.0,2.0,56,0.00,,,0.00,meteohub,2013-07-01 02:52:00,
2013-06-30 19:57:00,74.5,57.7,30.06,NE,51,2.0,6.0,56,0.00,,,0.00,meteohub,2013-07-01 02:57:00,
2013-06-30 20:02:00,73.9,57.7,30.06,NE,53,1.0,6.0,57,0.00,,,0.00,meteohub,2013-07-01 03:02:00,
2013-06-30 20:07:00,73.8,57.6,30.06,ENE,57,1.0,6.0,57,0.00,,,0.00,meteohub,2013-07-01 03:07:00,
2013-06-30 20:12:00,73.6,57.9,30.06,ENE,57,0.0,3.0,58,0.00,,,0.00,meteohub,2013-07-01 03:12:00,
2013-06-30 20:17:00,73.6,58.8,30.06,ENE,57,1.0,3.0,60,0.00,,,0.00,meteohub,2013-07-01 03:17:00,
2013-06-30 20:22:00,73.0,58.8,30.06,NE,49,0.0,3.0,61,0.00,,,0.00,meteohub,2013-07-01 03:22:00,
2013-06-30 20:27:00,72.7,56.1,30.06,ENE,71,0.0,3.0,56,0.00,,,0.00,meteohub,2013-07-01 03:27:00,
2013-06-30 20:32:00,72.9,56.3,30.06,East,82,0.0,3.0,56,0.00,,,0.00,meteohub,2013-07-01 03:32:00,
2013-06-30 20:37:00,73.0,56.5,30.06,East,82,0.0,3.0,56,0.00,,,0.00,meteohub,2013-07-01 03:37:00,
2013-06-30 20:42:00,72.7,56.1,30.06,South,169,0.0,2.0,56,0.00,,,0.00,meteohub,2013-07-01 03:42:00,
2013-06-30 20:47:00,72.1,55.6,30.06,South,169,0.0,1.0,56,0.00,,,0.00,meteohub,2013-07-01 03:47:00,
2013-06-30 20:52:00,71.8,55.2,30.06,South,169,0.0,0.0,56,0.00,,,0.00,meteohub,2013-07-01 03:52:00,
2013-06-30 20:57:00,71.2,55.2,30.07,South,169,0.0,0.0,57,0.00,,,0.00,meteohub,2013-07-01 03:57:00,
2013-06-30 21:01:00,70.9,54.3,30.07,South,169,0.0,0.0,56,0.00,,,0.00,meteohub,2013-07-01 04:01:00,
2013-06-30 21:02:00,70.9,54.9,30.07,South,170,0.0,0.0,57,0.00,,,0.00,meteohub,2013-07-01 04:02:00,
2013-06-30 21:07:00,70.3,54.3,30.07,South,169,0.0,0.0,57,0.00,,,0.00,meteohub,2013-07-01 04:07:00,
2013-06-30 21:12:00,70.0,54.0,30.07,South,169,0.0,0.0,57,0.00,,,0.00,meteohub,2013-07-01 04:12:00,
2013-06-30 21:17:00,69.6,54.1,30.07,South,170,0.0,0.0,58,0.00,,,0.00,meteohub,2013-07-01 04:17:00,
2013-06-30 21:22:00,69.3,53.8,30.07,South,169,0.0,0.0,58,0.00,,,0.00,meteohub,2013-07-01 04:22:00,
2013-06-30 21:27:00,68.9,54.0,30.08,South,169,0.0,0.0,59,0.00,,,0.00,meteohub,2013-07-01 04:27:00,
2013-06-30 21:32:00,68.5,53.6,30.08,South,169,0.0,0.0,59,0.00,,,0.00,meteohub,2013-07-01 04:32:00,
2013-06-30 21:37:00,68.4,54.0,30.08,South,169,0.0,0.0,60,0.00,,,0.00,meteohub,2013-07-01 04:37:00,
2013-06-30 21:42:00,68.0,53.6,30.08,South,169,0.0,0.0,60,0.00,,,0.00,meteohub,2013-07-01 04:42:00,
2013-06-30 21:47:00,67.8,53.4,30.08,SSE,162,0.0,0.0,60,0.00,,,0.00,meteohub,2013-07-01 04:47:00,
2013-06-30 21:52:00,67.6,52.9,30.08,SSE,151,0.0,1.0,59,0.00,,,0.00,meteohub,2013-07-01 04:52:00,
2013-06-30 21:57:00,67.6,53.2,30.09,SSE,149,0.0,1.0,60,0.00,,,0.00,meteohub,2013-07-01 04:57:00,
2013-06-30 22:02:00,67.5,53.1,30.09,SSE,148,0.0,1.0,60,0.00,,,0.00,meteohub,2013-07-01 05:02:00,
2013-06-30 22:07:00,67.5,53.1,30.09,SSE,149,1.0,1.0,60,0.00,,,0.00,meteohub,2013-07-01 05:07:00,
2013-06-30 22:12:00,67.5,53.1,30.09,SE,140,1.0,1.0,60,0.00,,,0.00,meteohub,2013-07-01 05:12:00,
2013-06-30 22:17:00,67.5,53.1,30.09,SSE,151,0.0,1.0,60,0.00,,,0.00,meteohub,2013-07-01 05:17:00,
2013-06-30 22:22:00,67.3,52.9,30.08,SSE,152,1.0,1.0,60,0.00,,,0.00,meteohub,2013-07-01 05:22:00,
2013-06-30 22:27:00,67.1,53.2,30.09,SE,146,0.0,2.0,61,0.00,,,0.00,meteohub,2013-07-01 05:27:00,
2013-06-30 22:33:00,66.7,53.2,30.09,SSE,149,0.0,2.0,62,0.00,,,0.00,meteohub,2013-07-01 05:33:00,
2013-06-30 22:38:00,66.4,54.3,30.09,SSE,149,0.0,2.0,65,0.00,,,0.00,meteohub,2013-07-01 05:38:00,
2013-06-30 22:43:00,66.0,54.0,30.09,SSE,153,0.0,1.0,65,0.00,,,0.00,meteohub,2013-07-01 05:43:00,
2013-06-30 22:48:00,65.8,53.8,30.09,SSE,153,0.0,0.0,65,0.00,,,0.00,meteohub,2013-07-01 05:48:00,
2013-06-30 22:53:00,65.7,54.9,30.09,SSE,150,1.0,0.0,68,0.00,,,0.00,meteohub,2013-07-01 05:53:00,
2013-06-30 22:58:00,65.3,54.5,30.09,SSE,159,0.0,1.0,68,0.00,,,0.00,meteohub,2013-07-01 05:58:00,
2013-06-30 23:03:00,64.9,53.8,30.09,SSE,159,0.0,1.0,67,0.00,,,0.00,meteohub,2013-07-01 06:03:00,
2013-06-30 23:08:00,64.8,54.0,30.09,SSE,160,0.0,1.0,68,0.00,,,0.00,meteohub,2013-07-01 06:08:00,
2013-06-30 23:13:00,64.6,54.1,30.09,South,188,0.0,1.0,69,0.00,,,0.00,meteohub,2013-07-01 06:13:00,
2013-06-30 23:18:00,64.2,53.8,30.09,SSE,162,0.0,2.0,69,0.00,,,0.00,meteohub,2013-07-01 06:18:00,
2013-06-30 23:23:00,63.9,53.4,30.10,SSE,155,0.0,2.0,69,0.00,,,0.00,meteohub,2013-07-01 06:23:00,
2013-06-30 23:28:00,63.5,53.1,30.10,SSW,199,0.0,2.0,69,0.00,,,0.00,meteohub,2013-07-01 06:28:00,
2013-06-30 23:33:00,63.3,53.4,30.10,SSE,156,0.0,0.0,70,0.00,,,0.00,meteohub,2013-07-01 06:33:00,
2013-06-30 23:38:00,63.0,53.1,30.10,SSE,150,2.0,2.0,70,0.00,,,0.00,meteohub,2013-07-01 06:38:00,
2013-06-30 23:43:00,62.8,52.9,30.10,SE,144,0.0,2.0,70,0.00,,,0.00,meteohub,2013-07-01 06:43:00,
2013-06-30 23:49:00,62.6,53.1,30.10,SE,142,0.0,2.0,71,0.00,,,0.00,meteohub,2013-07-01 06:49:00,
2013-06-30 23:54:00,62.4,52.5,30.10,SE,144,0.0,2.0,70,0.00,,,0.00,meteohub,2013-07-01 06:54:00,
2013-06-30 23:59:00,62.1,51.8,30.10,SE,144,0.0,1.0,69,0.00,,,0.00,meteohub,2013-07-01 06:59:00,